Time;durP1;ratioP1;P1;durP2;ratioP2;P2;SDS_P1;SDS_P2;PMS_P1;PMS_P2;Temp;Humidity;BMP_temperature;BMP_pressure;BME280_temperature;BME280_humidity;BME280_pressure;Samples;Min_cycle;Max_cycle;Signal;HPM_P1;HPM_P2
2021/04/03 00:00:52;;;;;;;6.80;4.60;;;14.60;37.90;;;;;;5048738;28;20471;-40
2021/04/03 00:03:20;;;;;;;6.13;5.10;;;14.30;38.10;;;;;;5049295;28;20781;-40
2021/04/03 00:05:45;;;;;;;6.20;4.27;;;14.20;37.80;;;;;;5043554;28;20435;-39
2021/04/03 00:08:12;;;;;;;6.67;4.57;;;14.00;38.30;;;;;;5049830;28;21017;-40
2021/04/03 00:10:46;;;;;;;4.97;4.43;;;14.30;39.00;;;;;;5046144;28;20215;-40
2021/04/03 00:13:17;;;;;;;8.53;5.10;;;14.60;38.30;;;;;;5044162;28;20463;-40
2021/04/03 00:15:43;;;;;;;6.63;4.90;;;14.60;37.80;;;;;;5050019;28;20419;-40
2021/04/03 00:18:11;;;;;;;6.93;5.67;;;14.70;37.80;;;;;;5045781;28;20942;-40
2021/04/03 00:20:37;;;;;;;6.40;5.40;;;14.80;37.30;;;;;;5041300;28;21003;-40
2021/04/03 00:23:04;;;;;;;5.97;4.27;;;15.00;37.40;;;;;;5035377;28;20525;-40
2021/04/03 00:25:30;;;;;;;8.40;5.50;;;15.20;37.50;;;;;;5050636;28;20575;-40
2021/04/03 00:27:56;;;;;;;6.50;4.70;;;15.30;36.90;;;;;;5041266;28;20490;-40
2021/04/03 00:30:22;;;;;;;12.27;5.30;;;15.00;35.90;;;;;;5040879;28;20486;-40
2021/04/03 00:32:56;;;;;;;5.20;4.47;;;14.90;37.40;;;;;;5048158;28;20200;-40
2021/04/03 00:35:31;;;;;;;5.47;4.97;;;15.10;37.80;;;;;;5042722;28;20188;-40
2021/04/03 00:37:58;;;;;;;4.90;4.30;;;15.30;36.70;;;;;;5041290;28;20430;-40
2021/04/03 00:40:27;;;;;;;6.47;4.43;;;15.50;36.60;;;;;;5041294;28;20579;-40
2021/04/03 00:42:53;;;;;;;5.13;4.63;;;15.60;36.70;;;;;;5049067;28;20455;-40
2021/04/03 00:45:22;;;;;;;8.37;5.20;;;15.70;37.00;;;;;;5048102;28;20439;-40
2021/04/03 00:47:48;;;;;;;4.93;4.50;;;15.70;36.30;;;;;;5049068;28;20217;-40
2021/04/03 00:50:17;;;;;;;6.53;5.13;;;15.80;36.00;;;;;;5037840;28;20442;-40
2021/04/03 00:52:43;;;;;;;6.30;5.13;;;15.90;35.60;;;;;;5041124;28;20196;-40
2021/04/03 00:55:10;;;;;;;5.80;4.93;;;16.00;35.00;;;;;;5038638;28;20427;-40
2021/04/03 00:57:37;;;;;;;7.77;4.63;;;16.10;35.60;;;;;;5045919;28;20201;-40
2021/04/03 01:00:05;;;;;;;5.10;4.70;;;16.10;35.50;;;;;;5042353;28;20432;-40
2021/04/03 01:02:31;;;;;;;6.27;5.60;;;16.10;35.30;;;;;;5046617;28;20934;-40
2021/04/03 01:04:57;;;;;;;8.57;4.80;;;16.30;35.40;;;;;;5052098;28;20481;-40
2021/04/03 01:07:23;;;;;;;6.07;5.47;;;16.40;35.00;;;;;;5046022;28;20326;-40
2021/04/03 01:09:49;;;;;;;5.47;4.60;;;16.30;33.80;;;;;;5042006;28;20531;-40
2021/04/03 01:12:20;;;;;;;5.67;4.93;;;16.20;33.80;;;;;;5038344;28;20204;-40
2021/04/03 01:15:26;;;;;;;7.70;5.00;;;16.10;34.10;;;;;;5047906;28;20263;-40
2021/04/03 01:18:17;;;;;;;5.70;5.07;;;16.10;34.30;;;;;;5042462;28;20440;-40
2021/04/03 01:21:04;;;;;;;6.73;5.23;;;16.10;34.30;;;;;;5037457;28;20471;-40
2021/04/03 01:24:17;;;;;;;8.47;5.57;;;16.00;33.70;;;;;;5042529;28;20498;-40
2021/04/03 01:27:16;;;;;;;6.53;5.80;;;15.80;34.20;;;;;;5041121;28;20439;-40
2021/04/03 01:30:06;;;;;;;5.27;4.80;;;15.90;34.40;;;;;;5036295;28;20533;-40
2021/04/03 01:32:40;;;;;;;8.13;4.73;;;16.00;34.90;;;;;;5038160;28;20865;-40
2021/04/03 01:35:09;;;;;;;6.00;5.10;;;16.00;34.40;;;;;;5044434;28;20445;-40
2021/04/03 01:37:43;;;;;;;8.10;5.20;;;16.10;34.20;;;;;;5041837;28;20435;-40
2021/04/03 01:40:10;;;;;;;5.30;4.30;;;16.00;33.60;;;;;;5043952;28;20431;-40
2021/04/03 01:42:38;;;;;;;6.00;4.80;;;16.00;34.20;;;;;;5049357;28;20517;-40
2021/04/03 01:45:06;;;;;;;5.53;3.77;;;16.10;34.40;;;;;;5041605;28;20440;-40
2021/04/03 01:47:36;;;;;;;7.00;5.20;;;16.10;34.20;;;;;;5050312;28;20578;-40
2021/04/03 01:50:05;;;;;;;7.83;5.77;;;16.10;33.60;;;;;;5045807;28;20439;-40
2021/04/03 01:52:32;;;;;;;7.43;5.23;;;16.10;33.20;;;;;;5034336;28;20490;-40
2021/04/03 01:55:04;;;;;;;5.30;4.80;;;16.10;33.70;;;;;;5039154;28;20519;-40
2021/04/03 01:57:31;;;;;;;9.37;5.00;;;16.00;33.50;;;;;;5042451;28;20435;-40
2021/04/03 01:59:58;;;;;;;5.97;5.37;;;15.80;33.40;;;;;;5047132;28;20432;-40
2021/04/03 02:02:24;;;;;;;7.03;4.80;;;15.70;34.20;;;;;;5046375;28;20551;-40
2021/04/03 02:04:50;;;;;;;4.80;4.40;;;15.60;34.00;;;;;;5040288;28;21041;-40
2021/04/03 02:07:22;;;;;;;7.80;4.60;;;15.60;34.70;;;;;;5035920;28;20891;-40
2021/04/03 02:09:50;;;;;;;9.53;5.40;;;15.60;34.10;;;;;;5045625;28;22198;-40
2021/04/03 02:12:17;;;;;;;5.47;4.80;;;15.50;34.00;;;;;;5040918;28;20439;-40
2021/04/03 02:14:46;;;;;;;5.93;5.37;;;15.50;34.00;;;;;;5040900;28;20449;-40
2021/04/03 02:17:13;;;;;;;4.93;4.40;;;15.50;34.00;;;;;;5042972;28;20443;-40
2021/04/03 02:19:40;;;;;;;6.83;5.17;;;15.50;33.90;;;;;;5046816;28;20854;-40
2021/04/03 02:22:06;;;;;;;8.93;4.63;;;15.50;34.10;;;;;;5044238;28;20826;-40
2021/04/03 02:24:32;;;;;;;9.07;5.47;;;15.60;34.00;;;;;;5036324;28;20807;-40
2021/04/03 02:26:57;;;;;;;6.30;5.33;;;15.60;34.10;;;;;;5039879;28;20477;-40
2021/04/03 02:29:23;;;;;;;7.83;4.43;;;15.70;34.10;;;;;;5040109;28;20223;-40
2021/04/03 02:31:50;;;;;;;11.57;5.87;;;15.70;33.90;;;;;;5046623;28;20189;-40
2021/04/03 02:34:16;;;;;;;5.47;4.60;;;15.80;33.80;;;;;;5041145;28;20196;-41
2021/04/03 02:36:41;;;;;;;5.60;4.63;;;15.70;33.60;;;;;;5048271;28;20837;-40
2021/04/03 02:39:07;;;;;;;9.00;4.43;;;15.70;34.10;;;;;;5047004;28;20228;-39
2021/04/03 02:41:55;;;;;;;4.93;4.43;;;15.50;34.30;;;;;;5048924;28;20538;-40
2021/04/03 02:44:29;;;;;;;5.27;4.20;;;15.50;33.90;;;;;;5043642;28;20205;-40
2021/04/03 02:47:04;;;;;;;8.70;4.90;;;15.40;34.50;;;;;;5043673;28;20554;-40
2021/04/03 02:50:14;;;;;;;5.23;4.73;;;15.20;34.30;;;;;;5040097;28;20434;-40
2021/04/03 02:52:41;;;;;;;6.00;4.40;;;15.10;34.30;;;;;;5022448;28;20487;-40
2021/04/03 02:55:08;;;;;;;8.17;4.50;;;15.00;34.50;;;;;;5040567;28;20487;-39
2021/04/03 02:57:34;;;;;;;6.97;4.73;;;15.00;35.80;;;;;;5045762;28;20458;-40
2021/04/03 03:00:04;;;;;;;7.80;4.23;;;15.00;35.40;;;;;;5033847;28;20523;-40
2021/04/03 03:02:30;;;;;;;4.70;3.83;;;15.10;35.60;;;;;;5048080;28;20435;-40
2021/04/03 03:04:57;;;;;;;7.63;4.77;;;15.30;36.10;;;;;;5045847;28;20446;-40
2021/04/03 03:07:24;;;;;;;5.20;4.20;;;15.40;35.20;;;;;;5040817;28;20490;-40
2021/04/03 03:09:52;;;;;;;6.07;3.60;;;15.50;36.00;;;;;;5043825;28;20435;-40
2021/04/03 03:12:21;;;;;;;4.50;4.10;;;15.50;35.70;;;;;;5045114;28;20438;-40
2021/04/03 03:14:48;;;;;;;8.53;4.90;;;15.70;36.80;;;;;;5046581;28;20450;-40
2021/04/03 03:17:15;;;;;;;6.90;4.27;;;15.90;36.10;;;;;;5045013;28;20440;-41
2021/04/03 03:19:41;;;;;;;5.07;4.40;;;16.00;34.80;;;;;;5032564;28;20424;-40
2021/04/03 03:22:08;;;;;;;7.03;4.73;;;16.00;34.50;;;;;;5043680;28;20444;-40
2021/04/03 03:24:34;;;;;;;5.73;5.07;;;16.10;33.60;;;;;;5036584;28;20435;-40
2021/04/03 03:27:01;;;;;;;8.60;4.10;;;16.10;33.40;;;;;;5040734;28;20979;-40
2021/04/03 03:29:28;;;;;;;5.60;4.23;;;16.00;33.60;;;;;;5038375;28;20793;-40
2021/04/03 03:31:54;;;;;;;5.20;4.37;;;16.00;33.40;;;;;;5045987;28;20455;-41
2021/04/03 03:34:21;;;;;;;5.30;4.67;;;16.00;33.80;;;;;;5045885;28;20439;-40
2021/04/03 03:36:47;;;;;;;5.00;4.17;;;15.90;33.50;;;;;;5048201;28;20470;-40
2021/04/03 03:39:13;;;;;;;6.17;4.47;;;15.70;33.50;;;;;;5044356;28;20438;-40
2021/04/03 03:41:40;;;;;;;10.33;5.10;;;15.70;33.70;;;;;;5041456;28;21006;-40
2021/04/03 03:44:07;;;;;;;5.93;4.40;;;15.50;33.90;;;;;;5048058;28;20499;-40
2021/04/03 03:46:33;;;;;;;8.23;4.43;;;15.50;33.80;;;;;;5038808;28;20520;-40
2021/04/03 03:49:00;;;;;;;7.47;4.33;;;15.40;33.70;;;;;;5043528;28;20443;-40
2021/04/03 03:51:25;;;;;;;4.93;4.50;;;15.40;34.10;;;;;;5037996;28;20442;-40
2021/04/03 03:53:51;;;;;;;6.97;3.53;;;15.30;34.00;;;;;;5045838;28;20426;-40
2021/04/03 03:56:17;;;;;;;4.80;3.60;;;15.30;34.40;;;;;;5041576;28;20189;-40
2021/04/03 03:58:44;;;;;;;5.23;4.07;;;15.40;34.50;;;;;;5046057;28;20623;-40
2021/04/03 04:01:10;;;;;;;4.43;4.03;;;15.40;34.10;;;;;;5045359;28;20240;-40
2021/04/03 04:03:35;;;;;;;11.90;3.87;;;15.40;34.30;;;;;;5045201;28;20462;-40
2021/04/03 04:06:02;;;;;;;4.87;3.73;;;15.30;35.40;;;;;;5043332;28;20197;-40
2021/04/03 04:08:28;;;;;;;6.93;4.00;;;15.30;35.30;;;;;;5035956;28;20259;-40
2021/04/03 04:10:53;;;;;;;5.73;4.10;;;15.30;34.30;;;;;;5041674;28;20597;-40
2021/04/03 04:13:19;;;;;;;6.40;4.20;;;15.30;35.40;;;;;;5042173;28;20219;-40
2021/04/03 04:15:45;;;;;;;8.00;4.43;;;15.30;35.00;;;;;;5050943;28;20228;-40
2021/04/03 04:18:10;;;;;;;6.30;4.40;;;15.30;34.50;;;;;;5049990;28;20199;-40
2021/04/03 04:20:36;;;;;;;6.13;3.80;;;15.30;35.30;;;;;;5042185;28;20195;-40
2021/04/03 04:23:02;;;;;;;6.60;4.40;;;15.30;35.40;;;;;;5044117;28;20201;-40
2021/04/03 04:25:28;;;;;;;5.23;3.77;;;15.40;35.10;;;;;;5040878;28;20428;-40
2021/04/03 04:27:54;;;;;;;5.20;4.10;;;15.40;34.70;;;;;;5044291;28;20600;-40
2021/04/03 04:30:20;;;;;;;4.00;3.63;;;15.40;35.70;;;;;;5047481;28;20201;-39
2021/04/03 04:32:46;;;;;;;6.50;3.93;;;15.40;34.50;;;;;;5053120;28;20267;-39
2021/04/03 04:35:12;;;;;;;7.43;4.00;;;15.30;34.60;;;;;;5042562;28;20435;-40
2021/04/03 04:37:39;;;;;;;7.00;4.43;;;15.20;34.90;;;;;;5042985;28;20217;-40
2021/04/03 04:40:06;;;;;;;9.77;4.00;;;15.30;35.20;;;;;;5065004;28;20420;-40
2021/04/03 04:42:31;;;;;;;4.87;3.80;;;15.30;35.10;;;;;;5047111;28;20850;-40
2021/04/03 04:44:57;;;;;;;5.27;4.10;;;15.40;35.20;;;;;;5048125;28;20461;-40
2021/04/03 04:47:23;;;;;;;6.73;4.40;;;15.40;35.80;;;;;;5043145;28;20239;-40
2021/04/03 04:49:50;;;;;;;7.90;3.97;;;15.50;35.90;;;;;;5044514;28;20206;-40
2021/04/03 04:52:16;;;;;;;4.63;3.40;;;15.50;34.90;;;;;;5044878;28;20300;-40
2021/04/03 04:54:41;;;;;;;6.20;4.17;;;15.50;34.90;;;;;;5043282;28;20510;-40
2021/04/03 04:57:07;;;;;;;6.17;4.03;;;15.30;34.60;;;;;;5046413;28;20192;-40
2021/04/03 04:59:33;;;;;;;4.50;4.10;;;15.30;34.90;;;;;;5043128;28;20213;-40
2021/04/03 05:01:59;;;;;;;6.87;4.37;;;15.20;34.80;;;;;;5045800;28;21291;-40
2021/04/03 05:04:24;;;;;;;4.93;3.97;;;15.20;35.00;;;;;;5033749;28;20208;-39
2021/04/03 05:06:50;;;;;;;7.53;3.43;;;15.10;34.80;;;;;;5034351;28;20193;-40
2021/04/03 05:09:15;;;;;;;4.40;4.00;;;15.00;34.80;;;;;;5050796;28;20236;-40
2021/04/03 05:11:41;;;;;;;4.10;2.87;;;14.80;35.20;;;;;;5038358;28;20192;-40
2021/04/03 05:14:07;;;;;;;10.33;3.63;;;14.60;39.30;;;;;;5047153;28;20204;-40
2021/04/03 05:16:32;;;;;;;5.37;3.60;;;14.90;37.60;;;;;;5041635;28;20924;-40
2021/04/03 05:18:58;;;;;;;4.20;3.47;;;15.20;36.30;;;;;;5044385;28;20193;-40
2021/04/03 05:21:24;;;;;;;4.63;3.43;;;15.40;35.40;;;;;;5042160;28;20233;-40
2021/04/03 05:23:50;;;;;;;5.30;3.30;;;15.60;35.20;;;;;;5041118;28;20440;-40
2021/04/03 05:26:16;;;;;;;9.43;4.10;;;15.70;34.80;;;;;;5047163;28;20264;-40
2021/04/03 05:28:42;;;;;;;7.10;3.80;;;15.80;34.30;;;;;;5035932;28;20570;-40
2021/04/03 05:31:07;;;;;;;8.07;5.27;;;15.80;34.20;;;;;;5042444;28;20951;-40
2021/04/03 05:33:33;;;;;;;8.30;3.60;;;15.80;33.90;;;;;;5049783;28;20199;-40
2021/04/03 05:35:58;;;;;;;3.47;2.97;;;15.80;34.10;;;;;;5042034;28;20235;-40
2021/04/03 05:38:24;;;;;;;7.30;4.10;;;15.90;34.00;;;;;;5045846;28;20235;-40
2021/04/03 05:40:49;;;;;;;5.33;3.57;;;15.80;33.90;;;;;;5042448;28;20200;-40
2021/04/03 05:43:17;;;;;;;7.23;3.87;;;15.70;33.90;;;;;;5044369;28;20679;-40
2021/04/03 05:45:44;;;;;;;4.87;3.73;;;15.60;34.60;;;;;;5038099;28;20578;-40
2021/04/03 05:48:10;;;;;;;5.67;3.90;;;15.50;34.20;;;;;;5035944;28;20495;-40
2021/04/03 05:50:36;;;;;;;3.87;3.40;;;15.50;34.20;;;;;;5037527;28;20432;-40
2021/04/03 05:53:03;;;;;;;7.83;3.30;;;15.40;34.40;;;;;;5041114;28;20470;-40
2021/04/03 05:55:29;;;;;;;4.17;3.70;;;15.50;34.60;;;;;;5038165;28;20463;-40
2021/04/03 05:57:55;;;;;;;4.53;3.30;;;15.50;34.70;;;;;;5042758;28;20510;-40
2021/04/03 06:00:21;;;;;;;5.00;3.30;;;15.50;34.60;;;;;;5042521;28;20879;-40
2021/04/03 06:02:47;;;;;;;3.83;3.27;;;15.60;35.10;;;;;;5049252;28;20200;-40
2021/04/03 06:05:13;;;;;;;4.37;3.50;;;15.70;34.50;;;;;;5046209;28;20439;-40
2021/04/03 06:07:40;;;;;;;5.43;3.23;;;15.70;34.50;;;;;;5048137;28;20573;-40
2021/04/03 06:10:07;;;;;;;3.50;3.07;;;15.80;34.40;;;;;;5050952;28;20462;-42
2021/04/03 06:12:44;;;;;;;3.33;2.97;;;15.90;34.40;;;;;;5047897;28;20926;-40
2021/04/03 06:15:34;;;;;;;4.50;3.33;;;16.00;34.90;;;;;;5037580;28;20504;-40
2021/04/03 06:18:07;;;;;;;3.57;3.27;;;16.00;34.30;;;;;;5048116;28;20853;-40
2021/04/03 06:20:34;;;;;;;7.07;4.10;;;16.10;34.10;;;;;;5041456;28;20834;-40
2021/04/03 06:23:00;;;;;;;4.77;3.40;;;16.00;33.90;;;;;;5049683;28;20438;-40
2021/04/03 06:25:26;;;;;;;5.13;3.67;;;15.80;34.20;;;;;;5040365;28;20434;-40
2021/04/03 06:28:05;;;;;;;5.40;3.70;;;15.80;34.50;;;;;;5049261;28;20524;-40
2021/04/03 06:30:35;;;;;;;4.27;2.70;;;15.60;34.90;;;;;;5043995;28;20435;-40
2021/04/03 06:33:20;;;;;;;5.67;4.13;;;15.60;35.20;;;;;;5048875;28;20530;-40
2021/04/03 06:36:12;;;;;;;3.57;3.10;;;15.80;35.00;;;;;;5043115;28;20471;-40
2021/04/03 06:38:39;;;;;;;3.80;3.27;;;16.00;34.60;;;;;;5048096;28;21263;-40
2021/04/03 06:41:39;;;;;;;5.70;4.13;;;16.10;34.50;;;;;;5050002;28;20470;-41
2021/04/03 06:44:10;;;;;;;4.57;3.30;;;16.20;34.40;;;;;;5032280;28;20451;-40
2021/04/03 06:46:38;;;;;;;3.10;2.90;;;16.30;34.30;;;;;;5041913;28;20558;-40
2021/04/03 06:49:05;;;;;;;6.10;3.40;;;16.40;34.20;;;;;;5047890;28;20440;-40
2021/04/03 06:51:31;;;;;;;4.77;3.00;;;16.50;34.20;;;;;;5045001;28;20492;-40
2021/04/03 06:53:58;;;;;;;4.47;2.80;;;16.40;34.00;;;;;;5044820;28;20498;-40
2021/04/03 06:56:25;;;;;;;4.60;3.20;;;16.50;34.00;;;;;;5049918;28;20431;-40
2021/04/03 06:59:20;;;;;;;8.60;4.27;;;16.60;33.70;;;;;;5045779;28;20431;-40
2021/04/03 07:01:56;;;;;;;6.57;3.10;;;16.90;33.20;;;;;;5044255;28;20458;-40
2021/04/03 07:04:39;;;;;;;3.00;2.67;;;16.90;32.80;;;;;;5047002;28;20488;-40
2021/04/03 07:07:07;;;;;;;5.90;3.27;;;17.00;33.00;;;;;;5045689;28;20825;-40
2021/04/03 07:09:34;;;;;;;5.47;2.90;;;17.20;33.00;;;;;;5033154;28;20436;-41
2021/04/03 07:12:00;;;;;;;7.57;2.60;;;17.20;32.70;;;;;;5041107;28;20451;-40
2021/04/03 07:14:29;;;;;;;5.27;2.37;;;16.80;32.80;;;;;;5033572;28;20436;-40
2021/04/03 07:16:56;;;;;;;2.40;2.13;;;16.90;33.10;;;;;;5037852;28;20860;-40
2021/04/03 07:19:23;;;;;;;7.17;3.40;;;16.90;32.20;;;;;;5034908;28;20443;-40
2021/04/03 07:21:49;;;;;;;5.97;2.50;;;16.90;32.90;;;;;;5044098;28;20825;-40
2021/04/03 07:24:17;;;;;;;4.83;2.60;;;17.00;32.80;;;;;;5034288;28;20526;-40
2021/04/03 07:26:46;;;;;;;4.63;2.70;;;17.00;32.30;;;;;;5040862;28;21037;-40
2021/04/03 07:29:43;;;;;;;3.70;2.43;;;16.60;32.30;;;;;;5048136;28;20945;-40
2021/04/03 07:32:27;;;;;;;4.30;2.47;;;16.50;32.70;;;;;;5047462;28;20450;-40
2021/04/03 07:34:52;;;;;;;2.63;1.77;;;16.70;33.20;;;;;;5049074;28;20475;-40
2021/04/03 07:37:34;;;;;;;3.90;2.03;;;16.60;33.20;;;;;;5038275;28;21088;-40
2021/04/03 07:39:59;;;;;;;7.57;1.90;;;16.70;33.30;;;;;;5037855;28;20416;-40
2021/04/03 07:42:36;;;;;;;3.03;1.80;;;16.80;34.60;;;;;;5039895;28;20557;-40
2021/04/03 07:45:04;;;;;;;2.30;1.70;;;17.20;34.20;;;;;;5037290;28;20221;-40
2021/04/03 07:47:44;;;;;;;3.37;1.63;;;17.50;32.90;;;;;;5040382;28;20482;-40
2021/04/03 07:50:10;;;;;;;2.63;1.80;;;17.70;32.50;;;;;;5045249;28;20477;-40
2021/04/03 07:52:52;;;;;;;3.07;2.37;;;17.90;32.10;;;;;;5044928;28;20450;-40
2021/04/03 07:55:53;;;;;;;2.90;2.10;;;18.00;31.80;;;;;;5042898;28;20248;-40
2021/04/03 07:58:19;;;;;;;2.10;1.90;;;17.90;31.60;;;;;;5036155;28;20554;-40
2021/04/03 08:00:48;;;;;;;2.27;2.07;;;18.00;32.00;;;;;;5037944;28;20998;-40
2021/04/03 08:03:18;;;;;;;3.27;2.03;;;18.00;31.90;;;;;;5050258;28;20211;-41
2021/04/03 08:05:44;;;;;;;2.63;2.00;;;18.10;31.70;;;;;;5050337;28;20449;-40
2021/04/03 08:08:10;;;;;;;4.37;2.20;;;18.10;31.70;;;;;;5047322;28;20488;-40
2021/04/03 08:10:36;;;;;;;3.10;2.40;;;18.10;31.40;;;;;;5047352;28;20193;-41
2021/04/03 08:13:02;;;;;;;2.27;2.07;;;18.10;31.50;;;;;;5045304;28;20471;-40
2021/04/03 08:15:29;;;;;;;4.00;2.23;;;18.10;31.40;;;;;;5038312;28;20248;-40
2021/04/03 08:17:55;;;;;;;4.20;2.10;;;18.10;31.20;;;;;;5038427;28;20473;-42
2021/04/03 08:20:24;;;;;;;3.73;2.53;;;18.10;31.30;;;;;;5051429;28;20452;-41
2021/04/03 08:23:04;;;;;;;3.10;2.30;;;18.10;31.60;;;;;;5049300;28;20981;-41
2021/04/03 08:25:30;;;;;;;3.40;2.43;;;18.20;31.50;;;;;;5042727;28;20442;-41
2021/04/03 08:27:57;;;;;;;2.27;2.03;;;18.10;31.10;;;;;;5042808;28;20486;-41
2021/04/03 08:30:31;;;;;;;2.60;1.77;;;18.20;31.60;;;;;;5044480;28;20192;-41
2021/04/03 08:33:30;;;;;;;2.57;1.90;;;18.20;31.40;;;;;;5049259;28;20532;-41
2021/04/03 08:35:55;;;;;;;4.03;2.43;;;18.10;31.60;;;;;;5046730;28;20839;-42
2021/04/03 08:38:24;;;;;;;2.83;2.13;;;18.00;31.80;;;;;;5039570;28;20436;-41
2021/04/03 08:40:51;;;;;;;3.77;2.37;;;18.10;31.80;;;;;;5040804;28;20192;-41
2021/04/03 08:43:18;;;;;;;5.33;2.90;;;18.10;31.70;;;;;;5043070;28;20938;-41
2021/04/03 08:45:44;;;;;;;2.70;2.20;;;18.20;31.40;;;;;;5035665;28;20424;-41
2021/04/03 08:48:11;;;;;;;2.67;2.43;;;18.30;31.20;;;;;;5039290;28;20491;-41
2021/04/03 08:50:38;;;;;;;4.27;2.30;;;18.40;31.30;;;;;;5046928;28;20535;-41
2021/04/03 08:53:06;;;;;;;4.50;2.13;;;18.50;31.10;;;;;;5042413;28;20477;-41
2021/04/03 08:55:32;;;;;;;4.83;2.27;;;18.50;30.90;;;;;;5042450;28;20443;-41
2021/04/03 08:57:58;;;;;;;2.27;2.00;;;18.50;30.70;;;;;;5042257;28;20946;-42
2021/04/03 09:00:25;;;;;;;6.03;2.53;;;18.40;30.40;;;;;;5046031;28;20576;-41
2021/04/03 09:02:54;;;;;;;5.93;2.93;;;18.50;30.50;;;;;;5044902;28;20431;-41
2021/04/03 09:05:20;;;;;;;2.87;2.10;;;18.60;30.30;;;;;;5043586;28;20439;-42
2021/04/03 09:07:46;;;;;;;2.20;2.00;;;18.60;30.00;;;;;;5039207;28;20491;-41
2021/04/03 09:10:21;;;;;;;6.30;2.10;;;18.70;30.10;;;;;;5037817;28;20197;-41
2021/04/03 09:12:48;;;;;;;3.13;2.00;;;18.70;30.00;;;;;;5040491;28;20585;-41
2021/04/03 09:15:16;;;;;;;2.53;2.20;;;18.80;30.30;;;;;;5046386;28;20461;-41
2021/04/03 09:17:52;;;;;;;2.00;1.80;;;18.80;30.30;;;;;;5037374;28;20846;-41
2021/04/03 09:20:21;;;;;;;2.60;2.10;;;18.80;30.30;;;;;;5049843;28;21077;-41
2021/04/03 09:22:49;;;;;;;4.80;2.67;;;18.80;30.20;;;;;;5047149;28;20497;-41
2021/04/03 09:25:17;;;;;;;2.23;1.80;;;18.90;30.20;;;;;;5036384;28;20518;-41
2021/04/03 09:27:59;;;;;;;2.30;2.13;;;19.10;30.20;;;;;;5042113;28;20501;-41
2021/04/03 09:30:36;;;;;;;3.23;1.83;;;19.20;30.10;;;;;;5046714;28;20444;-41
2021/04/03 09:33:21;;;;;;;2.20;2.00;;;19.20;29.50;;;;;;5044227;28;20517;-42
2021/04/03 09:35:46;;;;;;;2.83;2.63;;;19.20;29.60;;;;;;5039543;28;20454;-41
2021/04/03 09:38:12;;;;;;;3.93;2.40;;;19.20;29.80;;;;;;5051429;28;20822;-40
2021/04/03 09:40:42;;;;;;;2.63;2.13;;;19.10;29.90;;;;;;5037666;28;20197;-40
2021/04/03 09:43:08;;;;;;;7.30;2.33;;;19.30;30.10;;;;;;5039673;28;20488;-40
2021/04/03 09:45:36;;;;;;;2.33;2.00;;;19.40;29.60;;;;;;5038836;28;20439;-41
2021/04/03 09:48:02;;;;;;;3.57;2.10;;;19.50;29.20;;;;;;5038399;28;20487;-41
2021/04/03 09:50:27;;;;;;;5.17;2.20;;;19.50;29.90;;;;;;5047716;28;20435;-40
2021/04/03 09:52:55;;;;;;;3.00;2.00;;;19.50;29.40;;;;;;5041546;28;20200;-41
2021/04/03 09:55:20;;;;;;;3.13;1.80;;;19.60;29.00;;;;;;5037236;28;20196;-40
2021/04/03 09:57:47;;;;;;;3.63;3.10;;;19.70;29.20;;;;;;5050151;28;20980;-41
2021/04/03 10:00:13;;;;;;;3.00;2.33;;;19.80;29.70;;;;;;5044431;28;20536;-40
2021/04/03 10:02:39;;;;;;;6.50;2.60;;;19.80;29.30;;;;;;5042016;28;20435;-42
2021/04/03 10:05:06;;;;;;;3.20;2.30;;;19.90;29.60;;;;;;5043359;28;20447;-41
2021/04/03 10:07:31;;;;;;;3.67;2.40;;;20.10;29.50;;;;;;5040313;28;20271;-41
2021/04/03 10:09:57;;;;;;;6.03;2.73;;;20.30;29.30;;;;;;5040671;28;20432;-41
2021/04/03 10:12:22;;;;;;;5.53;2.60;;;20.40;28.30;;;;;;5031708;28;20205;-41
2021/04/03 10:14:48;;;;;;;3.00;2.60;;;20.50;28.70;;;;;;5035152;28;20220;-40
2021/04/03 10:17:14;;;;;;;3.70;2.27;;;20.70;28.90;;;;;;5034675;28;20205;-41
2021/04/03 10:19:40;;;;;;;3.30;2.73;;;20.70;28.90;;;;;;5038936;28;20289;-42
2021/04/03 10:22:06;;;;;;;5.67;3.30;;;20.90;29.00;;;;;;5049552;28;20594;-41
2021/04/03 10:24:32;;;;;;;6.67;2.67;;;20.70;28.80;;;;;;5050962;28;20200;-41
2021/04/03 10:26:57;;;;;;;4.03;3.63;;;20.90;28.80;;;;;;5046260;28;20443;-41
2021/04/03 10:29:23;;;;;;;3.63;2.77;;;20.90;28.10;;;;;;5049327;28;20195;-41
2021/04/03 10:31:48;;;;;;;5.50;3.40;;;21.00;28.30;;;;;;5044126;28;20280;-41
2021/04/03 10:34:14;;;;;;;6.73;3.13;;;21.00;28.10;;;;;;5051042;28;20192;-41
2021/04/03 10:36:39;;;;;;;2.83;2.30;;;21.00;28.10;;;;;;5041436;28;20606;-41
2021/04/03 10:39:07;;;;;;;3.00;2.63;;;21.10;28.00;;;;;;5037460;28;20193;-41
2021/04/03 10:41:33;;;;;;;5.00;2.43;;;21.10;27.60;;;;;;5045604;28;20398;-41
2021/04/03 10:43:59;;;;;;;3.87;2.50;;;21.00;27.80;;;;;;5045508;28;21007;-41
2021/04/03 10:46:24;;;;;;;4.70;2.63;;;21.00;28.10;;;;;;5035985;28;20276;-41
2021/04/03 10:48:50;;;;;;;6.13;2.77;;;20.90;27.30;;;;;;5043840;28;20315;-42
2021/04/03 10:51:15;;;;;;;4.63;2.57;;;20.80;27.60;;;;;;5037140;28;20188;-41
2021/04/03 10:53:41;;;;;;;3.97;2.60;;;20.80;28.50;;;;;;5035255;28;20283;-41
2021/04/03 10:56:07;;;;;;;4.10;2.43;;;20.80;27.80;;;;;;5035581;28;20196;-42
2021/04/03 10:58:32;;;;;;;2.77;2.27;;;20.70;27.10;;;;;;5040966;28;20660;-42
2021/04/03 11:00:58;;;;;;;3.70;2.53;;;20.80;27.40;;;;;;5045361;28;20641;-41
2021/04/03 11:03:23;;;;;;;2.60;2.40;;;20.80;27.80;;;;;;5047481;28;20192;-41
2021/04/03 11:05:49;;;;;;;2.23;2.03;;;20.80;27.70;;;;;;5044226;28;20771;-41
2021/04/03 11:08:16;;;;;;;3.33;2.03;;;20.90;27.40;;;;;;5045334;28;20248;-41
2021/04/03 11:10:41;;;;;;;4.30;2.30;;;21.10;27.20;;;;;;5043569;28;20266;-42
2021/04/03 11:13:07;;;;;;;2.40;2.20;;;21.10;27.70;;;;;;5043132;28;20470;-42
2021/04/03 11:15:33;;;;;;;5.63;2.70;;;21.20;27.90;;;;;;5044236;28;20227;-42
2021/04/03 11:17:58;;;;;;;6.33;2.77;;;21.40;27.60;;;;;;5052551;28;20197;-42
2021/04/03 11:20:24;;;;;;;2.93;2.40;;;21.20;27.60;;;;;;5044106;28;20199;-42
2021/04/03 11:22:49;;;;;;;2.43;2.20;;;21.40;27.10;;;;;;5050661;28;20184;-42
2021/04/03 11:25:15;;;;;;;4.63;2.07;;;21.50;26.80;;;;;;5053208;28;20279;-42
2021/04/03 11:27:41;;;;;;;3.30;2.20;;;21.60;26.90;;;;;;5048936;28;20275;-41
2021/04/03 11:30:14;;;;;;;1.97;1.87;;;21.50;26.50;;;;;;5052283;28;20436;-44
2021/04/03 11:32:44;;;;;;;4.03;2.50;;;21.30;26.80;;;;;;5050078;28;20196;-42
2021/04/03 11:35:11;;;;;;;3.47;2.30;;;21.10;26.40;;;;;;5053695;28;20998;-41
2021/04/03 11:37:37;;;;;;;2.57;2.00;;;20.80;26.40;;;;;;5055910;28;20430;-41
2021/04/03 11:40:04;;;;;;;5.90;2.27;;;20.80;26.60;;;;;;5049666;28;20420;-42
2021/04/03 11:42:30;;;;;;;4.87;2.57;;;20.80;26.70;;;;;;5049421;28;20231;-44
2021/04/03 11:44:55;;;;;;;3.83;2.10;;;20.80;26.60;;;;;;5052476;28;20455;-40
2021/04/03 11:47:23;;;;;;;5.20;2.33;;;20.80;27.30;;;;;;5049596;28;20785;-41
2021/04/03 11:49:49;;;;;;;2.87;2.37;;;21.10;27.80;;;;;;5055191;28;20290;-40
2021/04/03 11:52:15;;;;;;;4.73;2.20;;;21.10;26.70;;;;;;5047267;28;20431;-42
2021/04/03 11:54:40;;;;;;;3.13;2.17;;;21.20;26.40;;;;;;5048686;28;20450;-40
2021/04/03 11:57:07;;;;;;;2.53;2.00;;;21.50;25.70;;;;;;5048652;28;20253;-40
2021/04/03 11:59:33;;;;;;;2.20;1.77;;;21.80;25.20;;;;;;5046720;28;20563;-41
2021/04/03 12:01:58;;;;;;;5.13;2.10;;;22.00;24.90;;;;;;5050865;28;20443;-41
2021/04/03 12:04:24;;;;;;;1.73;1.60;;;22.10;25.00;;;;;;5049902;28;20192;-41
2021/04/03 12:06:51;;;;;;;6.53;1.90;;;22.00;24.70;;;;;;5049893;28;20189;-43
2021/04/03 12:09:17;;;;;;;4.03;2.10;;;21.90;25.50;;;;;;5054937;28;20666;-41
2021/04/03 12:11:42;;;;;;;3.97;1.70;;;21.80;25.80;;;;;;5050647;28;20514;-41
2021/04/03 12:14:08;;;;;;;2.10;1.80;;;21.90;25.70;;;;;;5051124;28;20201;-41
2021/04/03 12:16:33;;;;;;;1.63;1.53;;;21.90;25.50;;;;;;5054214;28;20648;-41
2021/04/03 12:18:59;;;;;;;2.63;1.80;;;21.90;25.10;;;;;;5046485;28;20200;-40
2021/04/03 12:21:25;;;;;;;2.17;1.97;;;21.90;25.90;;;;;;5052428;28;20185;-40
2021/04/03 12:23:50;;;;;;;1.60;1.50;;;21.60;23.90;;;;;;5057028;28;20644;-40
2021/04/03 12:26:16;;;;;;;2.90;2.27;;;21.50;24.40;;;;;;5046211;28;20192;-40
2021/04/03 12:28:41;;;;;;;2.37;1.70;;;21.20;24.90;;;;;;5041299;28;20236;-40
2021/04/03 12:31:07;;;;;;;2.90;2.27;;;20.70;24.70;;;;;;5045934;28;20276;-40
2021/04/03 12:33:32;;;;;;;11.67;2.60;;;20.30;25.90;;;;;;5049494;28;20189;-40
2021/04/03 12:35:58;;;;;;;2.50;2.30;;;20.00;26.80;;;;;;5043286;28;20196;-40
2021/04/03 12:38:24;;;;;;;3.07;2.30;;;19.70;25.90;;;;;;5047280;28;20192;-40
2021/04/03 12:40:49;;;;;;;4.27;2.07;;;19.70;26.30;;;;;;5047511;28;20745;-41
2021/04/03 12:43:15;;;;;;;3.03;2.10;;;19.80;26.20;;;;;;5053133;28;20292;-41
2021/04/03 12:45:40;;;;;;;6.20;2.70;;;19.50;26.40;;;;;;5034366;28;20554;-41
2021/04/03 12:48:06;;;;;;;2.07;1.93;;;19.50;26.90;;;;;;5039788;28;20266;-41
2021/04/03 12:50:32;;;;;;;4.93;2.00;;;19.30;26.50;;;;;;5049094;28;20205;-41
2021/04/03 12:52:57;;;;;;;5.10;2.17;;;19.30;26.80;;;;;;5052033;28;20200;-41